sensor_id;sensor_type;location;lat;lon;timestamp;P1;durP1;ratioP1;P2;durP2;ratioP2
49578;SDS011;35483;50.828;3.228;2023-06-10T00:00:00;6.20;;;5.70;;
49578;SDS011;35483;50.828;3.228;2023-06-10T00:02:26;6.13;;;5.63;;
49578;SDS011;35483;50.828;3.228;2023-06-10T00:04:52;6.05;;;5.13;;
49578;SDS011;35483;50.828;3.228;2023-06-10T00:07:18;6.10;;;5.50;;
49578;SDS011;35483;50.828;3.228;2023-06-10T00:09:44;6.05;;;5.55;;
49578;SDS011;35483;50.828;3.228;2023-06-10T00:12:10;6.57;;;5.80;;
49578;SDS011;35483;50.828;3.228;2023-06-10T00:14:37;6.32;;;5.72;;
49578;SDS011;35483;50.828;3.228;2023-06-10T00:17:04;6.53;;;5.38;;
49578;SDS011;35483;50.828;3.228;2023-06-10T00:19:30;6.35;;;5.75;;
49578;SDS011;35483;50.828;3.228;2023-06-10T00:21:56;6.43;;;5.72;;
49578;SDS011;35483;50.828;3.228;2023-06-10T00:24:23;8.57;;;6.07;;
49578;SDS011;35483;50.828;3.228;2023-06-10T00:26:48;5.78;;;5.18;;
49578;SDS011;35483;50.828;3.228;2023-06-10T00:29:14;6.38;;;5.80;;
49578;SDS011;35483;50.828;3.228;2023-06-10T00:31:40;7.43;;;5.72;;
49578;SDS011;35483;50.828;3.228;2023-06-10T00:34:07;6.40;;;5.68;;
49578;SDS011;35483;50.828;3.228;2023-06-10T00:36:33;6.00;;;5.50;;
49578;SDS011;35483;50.828;3.228;2023-06-10T00:39:01;6.22;;;5.63;;
49578;SDS011;35483;50.828;3.228;2023-06-10T00:41:29;6.18;;;5.78;;
49578;SDS011;35483;50.828;3.228;2023-06-10T00:43:55;5.85;;;5.40;;
49578;SDS011;35483;50.828;3.228;2023-06-10T00:46:21;6.60;;;6.00;;
49578;SDS011;35483;50.828;3.228;2023-06-10T00:48:50;7.20;;;6.45;;
49578;SDS011;35483;50.828;3.228;2023-06-10T00:51:16;6.38;;;5.78;;
49578;SDS011;35483;50.828;3.228;2023-06-10T00:53:42;6.18;;;5.63;;
49578;SDS011;35483;50.828;3.228;2023-06-10T00:56:09;6.90;;;6.22;;
49578;SDS011;35483;50.828;3.228;2023-06-10T00:58:35;6.55;;;5.95;;
49578;SDS011;35483;50.828;3.228;2023-06-10T01:01:01;6.40;;;5.75;;
49578;SDS011;35483;50.828;3.228;2023-06-10T01:03:29;6.43;;;5.88;;
49578;SDS011;35483;50.828;3.228;2023-06-10T01:06:06;7.00;;;6.30;;
49578;SDS011;35483;50.828;3.228;2023-06-10T01:11:52;6.65;;;6.05;;
49578;SDS011;35483;50.828;3.228;2023-06-10T01:14:29;6.88;;;6.22;;
49578;SDS011;35483;50.828;3.228;2023-06-10T01:16:57;6.45;;;5.85;;
49578;SDS011;35483;50.828;3.228;2023-06-10T01:19:25;7.18;;;6.50;;
49578;SDS011;35483;50.828;3.228;2023-06-10T01:21:51;6.88;;;6.20;;
49578;SDS011;35483;50.828;3.228;2023-06-10T01:24:20;6.95;;;6.22;;
49578;SDS011;35483;50.828;3.228;2023-06-10T01:26:49;6.97;;;6.38;;
49578;SDS011;35483;50.828;3.228;2023-06-10T01:29:20;7.43;;;6.03;;
49578;SDS011;35483;50.828;3.228;2023-06-10T01:32:03;7.25;;;6.60;;
49578;SDS011;35483;50.828;3.228;2023-06-10T01:34:33;8.00;;;6.72;;
49578;SDS011;35483;50.828;3.228;2023-06-10T01:37:00;6.70;;;6.05;;
49578;SDS011;35483;50.828;3.228;2023-06-10T01:39:28;8.60;;;6.75;;
49578;SDS011;35483;50.828;3.228;2023-06-10T01:41:54;8.27;;;7.45;;
49578;SDS011;35483;50.828;3.228;2023-06-10T01:44:22;7.55;;;6.85;;
49578;SDS011;35483;50.828;3.228;2023-06-10T01:46:48;7.03;;;6.32;;
49578;SDS011;35483;50.828;3.228;2023-06-10T01:49:14;7.30;;;6.70;;
49578;SDS011;35483;50.828;3.228;2023-06-10T01:51:40;7.20;;;6.50;;
49578;SDS011;35483;50.828;3.228;2023-06-10T01:54:06;7.85;;;7.07;;
49578;SDS011;35483;50.828;3.228;2023-06-10T01:56:32;7.57;;;6.88;;
49578;SDS011;35483;50.828;3.228;2023-06-10T01:58:58;7.38;;;6.55;;
49578;SDS011;35483;50.828;3.228;2023-06-10T02:01:24;8.00;;;6.72;;
49578;SDS011;35483;50.828;3.228;2023-06-10T02:03:51;7.50;;;6.65;;
49578;SDS011;35483;50.828;3.228;2023-06-10T02:06:17;7.72;;;6.75;;
49578;SDS011;35483;50.828;3.228;2023-06-10T02:08:42;7.80;;;7.05;;
49578;SDS011;35483;50.828;3.228;2023-06-10T02:11:11;8.23;;;6.43;;
49578;SDS011;35483;50.828;3.228;2023-06-10T02:13:37;7.97;;;7.18;;
49578;SDS011;35483;50.828;3.228;2023-06-10T02:16:03;7.82;;;7.00;;
49578;SDS011;35483;50.828;3.228;2023-06-10T02:18:36;6.90;;;6.30;;
49578;SDS011;35483;50.828;3.228;2023-06-10T02:21:08;7.18;;;6.57;;
49578;SDS011;35483;50.828;3.228;2023-06-10T02:23:34;7.60;;;6.82;;
49578;SDS011;35483;50.828;3.228;2023-06-10T02:26:00;8.23;;;7.43;;
49578;SDS011;35483;50.828;3.228;2023-06-10T02:28:27;8.07;;;7.38;;
49578;SDS011;35483;50.828;3.228;2023-06-10T02:30:52;8.73;;;7.95;;
49578;SDS011;35483;50.828;3.228;2023-06-10T02:33:18;8.05;;;7.25;;
49578;SDS011;35483;50.828;3.228;2023-06-10T02:35:45;8.00;;;7.30;;
49578;SDS011;35483;50.828;3.228;2023-06-10T02:38:11;8.02;;;7.32;;
49578;SDS011;35483;50.828;3.228;2023-06-10T02:40:36;8.32;;;7.00;;
49578;SDS011;35483;50.828;3.228;2023-06-10T02:43:02;8.07;;;7.28;;
49578;SDS011;35483;50.828;3.228;2023-06-10T02:45:28;7.35;;;6.65;;
49578;SDS011;35483;50.828;3.228;2023-06-10T02:48:02;9.33;;;7.60;;
49578;SDS011;35483;50.828;3.228;2023-06-10T02:50:28;9.02;;;7.60;;
49578;SDS011;35483;50.828;3.228;2023-06-10T02:53:00;8.27;;;7.47;;
49578;SDS011;35483;50.828;3.228;2023-06-10T02:55:26;9.00;;;8.10;;
49578;SDS011;35483;50.828;3.228;2023-06-10T02:57:52;8.10;;;7.40;;
49578;SDS011;35483;50.828;3.228;2023-06-10T03:00:19;8.60;;;7.60;;
49578;SDS011;35483;50.828;3.228;2023-06-10T03:02:46;8.02;;;7.28;;
49578;SDS011;35483;50.828;3.228;2023-06-10T03:05:16;8.52;;;7.72;;
49578;SDS011;35483;50.828;3.228;2023-06-10T03:07:45;9.07;;;8.07;;
49578;SDS011;35483;50.828;3.228;2023-06-10T03:10:12;8.10;;;7.32;;
49578;SDS011;35483;50.828;3.228;2023-06-10T03:12:38;8.30;;;7.20;;
49578;SDS011;35483;50.828;3.228;2023-06-10T03:15:09;8.90;;;7.97;;
49578;SDS011;35483;50.828;3.228;2023-06-10T03:17:35;7.95;;;7.15;;
49578;SDS011;35483;50.828;3.228;2023-06-10T03:20:10;8.93;;;8.00;;
49578;SDS011;35483;50.828;3.228;2023-06-10T03:22:36;8.43;;;7.63;;
49578;SDS011;35483;50.828;3.228;2023-06-10T03:25:05;8.38;;;7.53;;
49578;SDS011;35483;50.828;3.228;2023-06-10T03:27:35;8.38;;;7.50;;
49578;SDS011;35483;50.828;3.228;2023-06-10T03:30:02;8.88;;;7.97;;
49578;SDS011;35483;50.828;3.228;2023-06-10T03:32:34;7.50;;;6.82;;
49578;SDS011;35483;50.828;3.228;2023-06-10T03:35:00;8.25;;;7.55;;
49578;SDS011;35483;50.828;3.228;2023-06-10T03:37:26;8.10;;;7.30;;
49578;SDS011;35483;50.828;3.228;2023-06-10T03:39:52;8.80;;;7.53;;
49578;SDS011;35483;50.828;3.228;2023-06-10T03:42:18;9.02;;;7.60;;
49578;SDS011;35483;50.828;3.228;2023-06-10T03:44:44;8.25;;;7.55;;
49578;SDS011;35483;50.828;3.228;2023-06-10T03:47:10;8.55;;;7.75;;
49578;SDS011;35483;50.828;3.228;2023-06-10T03:49:38;8.15;;;7.35;;
49578;SDS011;35483;50.828;3.228;2023-06-10T03:52:05;8.65;;;7.82;;
49578;SDS011;35483;50.828;3.228;2023-06-10T03:54:32;8.80;;;8.00;;
49578;SDS011;35483;50.828;3.228;2023-06-10T03:56:59;8.45;;;7.75;;
49578;SDS011;35483;50.828;3.228;2023-06-10T03:59:25;8.05;;;7.30;;
49578;SDS011;35483;50.828;3.228;2023-06-10T04:01:51;8.75;;;7.85;;
49578;SDS011;35483;50.828;3.228;2023-06-10T04:04:17;8.55;;;7.75;;
49578;SDS011;35483;50.828;3.228;2023-06-10T04:06:43;10.07;;;8.40;;
49578;SDS011;35483;50.828;3.228;2023-06-10T04:09:18;9.23;;;8.35;;
49578;SDS011;35483;50.828;3.228;2023-06-10T04:11:51;17.80;;;16.20;;
49578;SDS011;35483;50.828;3.228;2023-06-10T04:14:17;9.23;;;8.32;;
49578;SDS011;35483;50.828;3.228;2023-06-10T04:16:43;9.30;;;8.45;;
49578;SDS011;35483;50.828;3.228;2023-06-10T04:19:10;10.77;;;8.23;;
49578;SDS011;35483;50.828;3.228;2023-06-10T04:21:35;9.18;;;7.82;;
49578;SDS011;35483;50.828;3.228;2023-06-10T04:24:01;9.13;;;8.23;;
49578;SDS011;35483;50.828;3.228;2023-06-10T04:26:27;9.38;;;8.50;;
49578;SDS011;35483;50.828;3.228;2023-06-10T04:28:53;8.75;;;7.70;;
49578;SDS011;35483;50.828;3.228;2023-06-10T04:31:19;10.55;;;9.45;;
49578;SDS011;35483;50.828;3.228;2023-06-10T04:33:46;8.68;;;7.88;;
49578;SDS011;35483;50.828;3.228;2023-06-10T04:36:28;8.35;;;7.55;;
49578;SDS011;35483;50.828;3.228;2023-06-10T04:38:55;8.43;;;7.57;;
49578;SDS011;35483;50.828;3.228;2023-06-10T04:41:20;9.07;;;8.18;;
49578;SDS011;35483;50.828;3.228;2023-06-10T04:43:47;9.70;;;8.45;;
49578;SDS011;35483;50.828;3.228;2023-06-10T04:46:13;11.32;;;8.48;;
49578;SDS011;35483;50.828;3.228;2023-06-10T04:48:42;9.05;;;8.25;;
49578;SDS011;35483;50.828;3.228;2023-06-10T04:51:11;8.95;;;8.05;;
49578;SDS011;35483;50.828;3.228;2023-06-10T04:53:39;8.93;;;8.02;;
49578;SDS011;35483;50.828;3.228;2023-06-10T04:56:05;8.70;;;7.90;;
49578;SDS011;35483;50.828;3.228;2023-06-10T04:58:32;9.10;;;8.25;;
49578;SDS011;35483;50.828;3.228;2023-06-10T05:01:12;8.95;;;8.05;;
49578;SDS011;35483;50.828;3.228;2023-06-10T05:03:38;8.75;;;7.95;;
49578;SDS011;35483;50.828;3.228;2023-06-10T05:06:03;9.52;;;8.02;;
49578;SDS011;35483;50.828;3.228;2023-06-10T05:08:29;8.40;;;7.45;;
49578;SDS011;35483;50.828;3.228;2023-06-10T05:10:56;9.00;;;8.10;;
49578;SDS011;35483;50.828;3.228;2023-06-10T05:13:23;8.73;;;7.70;;
49578;SDS011;35483;50.828;3.228;2023-06-10T05:15:49;8.15;;;7.45;;
49578;SDS011;35483;50.828;3.228;2023-06-10T05:18:15;8.63;;;7.82;;
49578;SDS011;35483;50.828;3.228;2023-06-10T05:20:40;9.25;;;8.35;;
49578;SDS011;35483;50.828;3.228;2023-06-10T05:23:06;8.98;;;8.07;;
49578;SDS011;35483;50.828;3.228;2023-06-10T05:25:32;8.88;;;7.90;;
49578;SDS011;35483;50.828;3.228;2023-06-10T05:27:58;8.90;;;8.10;;
49578;SDS011;35483;50.828;3.228;2023-06-10T05:30:24;8.63;;;7.82;;
49578;SDS011;35483;50.828;3.228;2023-06-10T05:32:51;8.70;;;7.93;;
49578;SDS011;35483;50.828;3.228;2023-06-10T05:35:18;9.13;;;8.30;;
49578;SDS011;35483;50.828;3.228;2023-06-10T05:37:44;8.75;;;8.05;;
49578;SDS011;35483;50.828;3.228;2023-06-10T05:40:10;8.10;;;7.40;;
49578;SDS011;35483;50.828;3.228;2023-06-10T05:42:37;8.80;;;7.82;;
49578;SDS011;35483;50.828;3.228;2023-06-10T05:45:07;9.13;;;8.32;;
49578;SDS011;35483;50.828;3.228;2023-06-10T05:47:33;9.40;;;7.65;;
49578;SDS011;35483;50.828;3.228;2023-06-10T05:49:59;8.43;;;7.60;;
49578;SDS011;35483;50.828;3.228;2023-06-10T05:52:25;8.55;;;7.72;;
49578;SDS011;35483;50.828;3.228;2023-06-10T05:54:51;8.30;;;7.50;;
49578;SDS011;35483;50.828;3.228;2023-06-10T05:57:29;11.50;;;7.53;;
49578;SDS011;35483;50.828;3.228;2023-06-10T05:59:55;8.38;;;7.60;;
49578;SDS011;35483;50.828;3.228;2023-06-10T06:02:21;9.00;;;7.40;;
49578;SDS011;35483;50.828;3.228;2023-06-10T06:04:48;8.32;;;7.55;;
49578;SDS011;35483;50.828;3.228;2023-06-10T06:07:14;8.30;;;7.60;;
49578;SDS011;35483;50.828;3.228;2023-06-10T06:09:46;8.13;;;7.43;;
49578;SDS011;35483;50.828;3.228;2023-06-10T06:12:12;8.82;;;7.93;;
49578;SDS011;35483;50.828;3.228;2023-06-10T06:14:38;7.85;;;7.15;;
49578;SDS011;35483;50.828;3.228;2023-06-10T06:17:05;8.75;;;7.82;;
49578;SDS011;35483;50.828;3.228;2023-06-10T06:19:31;8.85;;;7.80;;
49578;SDS011;35483;50.828;3.228;2023-06-10T06:21:57;7.97;;;7.18;;
49578;SDS011;35483;50.828;3.228;2023-06-10T06:24:24;9.07;;;8.20;;
49578;SDS011;35483;50.828;3.228;2023-06-10T06:26:50;8.60;;;7.75;;
49578;SDS011;35483;50.828;3.228;2023-06-10T06:29:15;9.68;;;7.50;;
49578;SDS011;35483;50.828;3.228;2023-06-10T06:31:41;8.57;;;7.85;;
49578;SDS011;35483;50.828;3.228;2023-06-10T06:34:10;8.27;;;7.47;;
49578;SDS011;35483;50.828;3.228;2023-06-10T06:36:36;8.50;;;7.80;;
49578;SDS011;35483;50.828;3.228;2023-06-10T06:39:01;8.70;;;7.90;;
49578;SDS011;35483;50.828;3.228;2023-06-10T06:41:27;8.65;;;7.85;;
49578;SDS011;35483;50.828;3.228;2023-06-10T06:43:56;8.20;;;7.50;;
49578;SDS011;35483;50.828;3.228;2023-06-10T06:46:22;7.35;;;6.65;;
49578;SDS011;35483;50.828;3.228;2023-06-10T06:48:48;8.18;;;7.30;;
49578;SDS011;35483;50.828;3.228;2023-06-10T06:51:14;8.98;;;7.97;;
49578;SDS011;35483;50.828;3.228;2023-06-10T06:53:39;7.80;;;7.05;;
49578;SDS011;35483;50.828;3.228;2023-06-10T06:56:12;15.25;;;7.38;;
49578;SDS011;35483;50.828;3.228;2023-06-10T06:58:38;7.53;;;6.72;;
49578;SDS011;35483;50.828;3.228;2023-06-10T07:01:04;8.32;;;7.53;;
49578;SDS011;35483;50.828;3.228;2023-06-10T07:03:30;7.82;;;7.13;;
49578;SDS011;35483;50.828;3.228;2023-06-10T07:05:57;7.55;;;6.80;;
49578;SDS011;35483;50.828;3.228;2023-06-10T07:08:22;8.48;;;7.57;;
49578;SDS011;35483;50.828;3.228;2023-06-10T07:10:49;8.10;;;7.40;;
49578;SDS011;35483;50.828;3.228;2023-06-10T07:13:16;8.05;;;6.93;;
49578;SDS011;35483;50.828;3.228;2023-06-10T07:15:42;9.77;;;6.88;;
49578;SDS011;35483;50.828;3.228;2023-06-10T07:18:08;6.88;;;6.28;;
49578;SDS011;35483;50.828;3.228;2023-06-10T07:20:34;8.10;;;7.30;;
49578;SDS011;35483;50.828;3.228;2023-06-10T07:23:00;7.35;;;6.75;;
49578;SDS011;35483;50.828;3.228;2023-06-10T07:25:26;7.30;;;6.70;;
49578;SDS011;35483;50.828;3.228;2023-06-10T07:27:51;6.80;;;6.20;;
49578;SDS011;35483;50.828;3.228;2023-06-10T07:30:17;7.03;;;6.40;;
49578;SDS011;35483;50.828;3.228;2023-06-10T07:32:43;7.68;;;6.88;;
49578;SDS011;35483;50.828;3.228;2023-06-10T07:35:09;7.53;;;6.90;;
49578;SDS011;35483;50.828;3.228;2023-06-10T07:37:36;7.68;;;6.93;;
49578;SDS011;35483;50.828;3.228;2023-06-10T07:40:04;7.88;;;7.07;;
49578;SDS011;35483;50.828;3.228;2023-06-10T07:42:37;7.53;;;6.82;;
49578;SDS011;35483;50.828;3.228;2023-06-10T07:45:04;7.78;;;7.07;;
49578;SDS011;35483;50.828;3.228;2023-06-10T07:47:33;8.60;;;7.07;;
49578;SDS011;35483;50.828;3.228;2023-06-10T07:49:59;7.53;;;6.80;;
49578;SDS011;35483;50.828;3.228;2023-06-10T07:52:25;7.30;;;6.65;;
49578;SDS011;35483;50.828;3.228;2023-06-10T07:54:51;8.00;;;6.75;;
49578;SDS011;35483;50.828;3.228;2023-06-10T07:57:17;7.10;;;6.45;;
49578;SDS011;35483;50.828;3.228;2023-06-10T07:59:47;7.00;;;6.40;;
49578;SDS011;35483;50.828;3.228;2023-06-10T08:02:14;6.25;;;5.75;;
49578;SDS011;35483;50.828;3.228;2023-06-10T08:04:40;6.68;;;6.07;;
49578;SDS011;35483;50.828;3.228;2023-06-10T08:07:06;6.70;;;6.10;;
49578;SDS011;35483;50.828;3.228;2023-06-10T08:09:32;8.52;;;6.03;;
49578;SDS011;35483;50.828;3.228;2023-06-10T08:11:58;7.20;;;6.50;;
49578;SDS011;35483;50.828;3.228;2023-06-10T08:14:23;6.72;;;6.10;;
49578;SDS011;35483;50.828;3.228;2023-06-10T08:16:49;7.53;;;6.93;;
49578;SDS011;35483;50.828;3.228;2023-06-10T08:19:16;7.22;;;6.40;;
49578;SDS011;35483;50.828;3.228;2023-06-10T08:21:42;7.40;;;6.70;;
49578;SDS011;35483;50.828;3.228;2023-06-10T08:24:09;7.82;;;6.35;;
49578;SDS011;35483;50.828;3.228;2023-06-10T08:26:35;7.55;;;6.38;;
49578;SDS011;35483;50.828;3.228;2023-06-10T08:29:01;7.43;;;6.72;;
49578;SDS011;35483;50.828;3.228;2023-06-10T08:31:27;6.90;;;6.30;;
49578;SDS011;35483;50.828;3.228;2023-06-10T08:33:53;7.13;;;6.53;;
49578;SDS011;35483;50.828;3.228;2023-06-10T08:36:19;7.05;;;6.45;;
49578;SDS011;35483;50.828;3.228;2023-06-10T08:38:45;6.97;;;6.38;;
49578;SDS011;35483;50.828;3.228;2023-06-10T08:41:12;6.88;;;6.20;;
49578;SDS011;35483;50.828;3.228;2023-06-10T08:43:44;6.32;;;5.82;;
49578;SDS011;35483;50.828;3.228;2023-06-10T08:46:14;6.60;;;6.00;;
49578;SDS011;35483;50.828;3.228;2023-06-10T08:48:44;6.25;;;5.75;;
49578;SDS011;35483;50.828;3.228;2023-06-10T08:51:17;6.60;;;6.05;;
49578;SDS011;35483;50.828;3.228;2023-06-10T08:53:52;7.10;;;6.40;;
49578;SDS011;35483;50.828;3.228;2023-06-10T08:56:26;6.70;;;6.10;;
49578;SDS011;35483;50.828;3.228;2023-06-10T08:58:53;6.30;;;5.80;;
49578;SDS011;35483;50.828;3.228;2023-06-10T09:01:21;6.63;;;6.03;;
49578;SDS011;35483;50.828;3.228;2023-06-10T09:03:48;6.80;;;6.20;;
49578;SDS011;35483;50.828;3.228;2023-06-10T09:06:16;7.03;;;6.45;;
49578;SDS011;35483;50.828;3.228;2023-06-10T09:08:43;6.25;;;5.75;;
49578;SDS011;35483;50.828;3.228;2023-06-10T09:11:09;6.90;;;6.30;;
49578;SDS011;35483;50.828;3.228;2023-06-10T09:13:35;6.53;;;6.03;;
49578;SDS011;35483;50.828;3.228;2023-06-10T09:16:01;6.45;;;5.93;;
49578;SDS011;35483;50.828;3.228;2023-06-10T09:18:27;6.80;;;6.20;;
49578;SDS011;35483;50.828;3.228;2023-06-10T09:20:54;7.05;;;6.28;;
49578;SDS011;35483;50.828;3.228;2023-06-10T09:23:20;7.30;;;6.63;;
49578;SDS011;35483;50.828;3.228;2023-06-10T09:25:53;7.03;;;6.40;;
49578;SDS011;35483;50.828;3.228;2023-06-10T09:28:24;6.75;;;6.00;;
49578;SDS011;35483;50.828;3.228;2023-06-10T09:31:00;7.35;;;6.28;;
49578;SDS011;35483;50.828;3.228;2023-06-10T09:33:32;6.80;;;6.20;;
49578;SDS011;35483;50.828;3.228;2023-06-10T09:36:02;6.80;;;6.20;;
49578;SDS011;35483;50.828;3.228;2023-06-10T09:38:32;7.32;;;6.30;;
49578;SDS011;35483;50.828;3.228;2023-06-10T09:40:59;6.75;;;6.18;;
49578;SDS011;35483;50.828;3.228;2023-06-10T09:43:41;6.70;;;6.10;;
49578;SDS011;35483;50.828;3.228;2023-06-10T09:48:43;6.90;;;6.30;;
49578;SDS011;35483;50.828;3.228;2023-06-10T09:51:10;6.60;;;5.88;;
49578;SDS011;35483;50.828;3.228;2023-06-10T09:53:36;6.45;;;5.85;;
49578;SDS011;35483;50.828;3.228;2023-06-10T09:56:02;6.85;;;6.22;;
49578;SDS011;35483;50.828;3.228;2023-06-10T09:58:37;6.47;;;5.97;;
49578;SDS011;35483;50.828;3.228;2023-06-10T10:01:12;7.13;;;6.43;;
49578;SDS011;35483;50.828;3.228;2023-06-10T10:03:45;6.70;;;6.10;;
49578;SDS011;35483;50.828;3.228;2023-06-10T10:06:15;7.03;;;6.43;;
49578;SDS011;35483;50.828;3.228;2023-06-10T10:08:43;7.15;;;6.53;;
49578;SDS011;35483;50.828;3.228;2023-06-10T10:11:10;6.80;;;6.07;;
49578;SDS011;35483;50.828;3.228;2023-06-10T10:13:36;6.65;;;6.15;;
49578;SDS011;35483;50.828;3.228;2023-06-10T10:16:14;5.93;;;5.43;;
49578;SDS011;35483;50.828;3.228;2023-06-10T10:18:46;5.30;;;4.80;;
49578;SDS011;35483;50.828;3.228;2023-06-10T10:21:18;7.53;;;5.65;;
49578;SDS011;35483;50.828;3.228;2023-06-10T10:26:18;6.50;;;5.35;;
49578;SDS011;35483;50.828;3.228;2023-06-10T10:29:29;5.82;;;5.25;;
49578;SDS011;35483;50.828;3.228;2023-06-10T10:31:39;6.00;;;5.50;;
49578;SDS011;35483;50.828;3.228;2023-06-10T10:34:20;5.30;;;4.90;;
49578;SDS011;35483;50.828;3.228;2023-06-10T10:36:55;5.90;;;5.40;;
49578;SDS011;35483;50.828;3.228;2023-06-10T10:39:21;5.30;;;4.88;;
49578;SDS011;35483;50.828;3.228;2023-06-10T10:41:48;5.40;;;4.90;;
49578;SDS011;35483;50.828;3.228;2023-06-10T10:44:15;8.65;;;4.88;;
49578;SDS011;35483;50.828;3.228;2023-06-10T10:46:52;5.50;;;5.00;;
49578;SDS011;35483;50.828;3.228;2023-06-10T10:49:19;5.68;;;4.90;;
49578;SDS011;35483;50.828;3.228;2023-06-10T10:52:00;5.60;;;5.10;;
49578;SDS011;35483;50.828;3.228;2023-06-10T10:57:09;5.32;;;4.82;;
49578;SDS011;35483;50.828;3.228;2023-06-10T11:02:31;5.55;;;5.05;;
49578;SDS011;35483;50.828;3.228;2023-06-10T11:04:59;7.43;;;4.88;;
49578;SDS011;35483;50.828;3.228;2023-06-10T11:07:26;5.07;;;4.65;;
49578;SDS011;35483;50.828;3.228;2023-06-10T11:10:12;5.45;;;4.93;;
49578;SDS011;35483;50.828;3.228;2023-06-10T11:15:10;5.53;;;5.03;;
49578;SDS011;35483;50.828;3.228;2023-06-10T11:28:37;5.30;;;4.82;;
49578;SDS011;35483;50.828;3.228;2023-06-10T11:31:24;4.93;;;4.53;;
49578;SDS011;35483;50.828;3.228;2023-06-10T11:36:26;4.95;;;4.35;;
49578;SDS011;35483;50.828;3.228;2023-06-10T11:38:55;5.05;;;4.55;;
49578;SDS011;35483;50.828;3.228;2023-06-10T11:41:25;5.00;;;4.60;;
49578;SDS011;35483;50.828;3.228;2023-06-10T11:43:52;5.50;;;5.00;;
49578;SDS011;35483;50.828;3.228;2023-06-10T11:46:20;5.30;;;4.88;;
49578;SDS011;35483;50.828;3.228;2023-06-10T11:48:54;4.78;;;4.30;;
49578;SDS011;35483;50.828;3.228;2023-06-10T11:51:21;4.80;;;4.40;;
49578;SDS011;35483;50.828;3.228;2023-06-10T11:53:47;4.95;;;4.47;;
49578;SDS011;35483;50.828;3.228;2023-06-10T11:56:19;4.32;;;3.92;;
49578;SDS011;35483;50.828;3.228;2023-06-10T11:58:45;4.68;;;4.25;;
49578;SDS011;35483;50.828;3.228;2023-06-10T12:01:20;4.82;;;4.40;;
49578;SDS011;35483;50.828;3.228;2023-06-10T12:04:06;4.78;;;4.38;;
49578;SDS011;35483;50.828;3.228;2023-06-10T12:06:43;5.03;;;4.53;;
49578;SDS011;35483;50.828;3.228;2023-06-10T12:09:16;5.05;;;4.63;;
49578;SDS011;35483;50.828;3.228;2023-06-10T12:11:54;5.30;;;4.80;;
49578;SDS011;35483;50.828;3.228;2023-06-10T12:19:59;4.65;;;4.25;;
49578;SDS011;35483;50.828;3.228;2023-06-10T12:22:26;5.35;;;4.10;;
49578;SDS011;35483;50.828;3.228;2023-06-10T12:24:58;4.72;;;4.43;;
49578;SDS011;35483;50.828;3.228;2023-06-10T12:27:26;4.85;;;4.40;;
49578;SDS011;35483;50.828;3.228;2023-06-10T12:29:55;6.10;;;4.53;;
49578;SDS011;35483;50.828;3.228;2023-06-10T12:35:09;4.78;;;4.10;;
49578;SDS011;35483;50.828;3.228;2023-06-10T12:37:37;4.65;;;4.35;;
49578;SDS011;35483;50.828;3.228;2023-06-10T12:40:03;5.20;;;4.70;;
49578;SDS011;35483;50.828;3.228;2023-06-10T12:42:34;4.43;;;4.03;;
49578;SDS011;35483;50.828;3.228;2023-06-10T12:45:02;4.70;;;4.30;;
49578;SDS011;35483;50.828;3.228;2023-06-10T12:47:32;5.22;;;4.55;;
49578;SDS011;35483;50.828;3.228;2023-06-10T12:50:03;5.50;;;5.00;;
49578;SDS011;35483;50.828;3.228;2023-06-10T12:52:30;4.47;;;4.18;;
49578;SDS011;35483;50.828;3.228;2023-06-10T12:54:57;5.18;;;4.68;;
49578;SDS011;35483;50.828;3.228;2023-06-10T12:57:24;5.25;;;4.68;;
49578;SDS011;35483;50.828;3.228;2023-06-10T12:59:49;5.07;;;4.68;;
49578;SDS011;35483;50.828;3.228;2023-06-10T13:02:18;5.07;;;4.43;;
49578;SDS011;35483;50.828;3.228;2023-06-10T13:04:45;4.78;;;4.32;;
49578;SDS011;35483;50.828;3.228;2023-06-10T13:07:11;4.70;;;4.20;;
49578;SDS011;35483;50.828;3.228;2023-06-10T13:09:37;4.32;;;4.03;;
49578;SDS011;35483;50.828;3.228;2023-06-10T13:12:03;5.45;;;4.95;;
49578;SDS011;35483;50.828;3.228;2023-06-10T13:14:30;4.68;;;4.28;;
49578;SDS011;35483;50.828;3.228;2023-06-10T13:16:56;5.07;;;4.68;;
49578;SDS011;35483;50.828;3.228;2023-06-10T13:19:21;4.95;;;4.43;;
49578;SDS011;35483;50.828;3.228;2023-06-10T13:21:47;4.93;;;4.43;;
49578;SDS011;35483;50.828;3.228;2023-06-10T13:24:13;4.78;;;4.30;;
49578;SDS011;35483;50.828;3.228;2023-06-10T13:26:39;4.82;;;4.43;;
49578;SDS011;35483;50.828;3.228;2023-06-10T13:29:05;4.82;;;4.35;;
49578;SDS011;35483;50.828;3.228;2023-06-10T13:31:33;4.93;;;4.53;;
49578;SDS011;35483;50.828;3.228;2023-06-10T13:34:00;4.95;;;4.35;;
49578;SDS011;35483;50.828;3.228;2023-06-10T13:36:25;4.68;;;4.28;;
49578;SDS011;35483;50.828;3.228;2023-06-10T13:38:51;5.43;;;4.93;;
49578;SDS011;35483;50.828;3.228;2023-06-10T13:41:17;5.25;;;4.63;;
49578;SDS011;35483;50.828;3.228;2023-06-10T13:43:43;5.10;;;4.55;;
49578;SDS011;35483;50.828;3.228;2023-06-10T13:46:08;4.68;;;4.28;;
49578;SDS011;35483;50.828;3.228;2023-06-10T13:48:34;4.85;;;4.38;;
49578;SDS011;35483;50.828;3.228;2023-06-10T13:51:00;5.38;;;4.50;;
49578;SDS011;35483;50.828;3.228;2023-06-10T13:53:26;5.00;;;4.40;;
49578;SDS011;35483;50.828;3.228;2023-06-10T13:55:52;4.90;;;4.50;;
49578;SDS011;35483;50.828;3.228;2023-06-10T13:58:17;4.97;;;4.50;;
49578;SDS011;35483;50.828;3.228;2023-06-10T14:00:44;4.63;;;4.30;;
49578;SDS011;35483;50.828;3.228;2023-06-10T14:03:10;4.72;;;4.40;;
49578;SDS011;35483;50.828;3.228;2023-06-10T14:05:36;4.60;;;4.20;;
49578;SDS011;35483;50.828;3.228;2023-06-10T14:08:02;5.30;;;4.22;;
49578;SDS011;35483;50.828;3.228;2023-06-10T14:10:28;5.00;;;4.50;;
49578;SDS011;35483;50.828;3.228;2023-06-10T14:12:53;4.68;;;4.28;;
49578;SDS011;35483;50.828;3.228;2023-06-10T14:15:19;4.75;;;4.35;;
49578;SDS011;35483;50.828;3.228;2023-06-10T14:17:45;5.30;;;4.90;;
49578;SDS011;35483;50.828;3.228;2023-06-10T14:20:11;4.97;;;4.43;;
49578;SDS011;35483;50.828;3.228;2023-06-10T14:22:37;4.47;;;4.15;;
49578;SDS011;35483;50.828;3.228;2023-06-10T14:25:03;4.93;;;4.10;;
49578;SDS011;35483;50.828;3.228;2023-06-10T14:27:29;5.13;;;4.72;;
49578;SDS011;35483;50.828;3.228;2023-06-10T14:29:55;4.85;;;4.40;;
49578;SDS011;35483;50.828;3.228;2023-06-10T14:32:20;4.28;;;3.88;;
49578;SDS011;35483;50.828;3.228;2023-06-10T14:34:46;5.13;;;4.63;;
49578;SDS011;35483;50.828;3.228;2023-06-10T14:37:12;4.38;;;3.97;;
49578;SDS011;35483;50.828;3.228;2023-06-10T14:39:38;5.13;;;4.63;;
49578;SDS011;35483;50.828;3.228;2023-06-10T14:42:03;6.70;;;4.85;;
49578;SDS011;35483;50.828;3.228;2023-06-10T14:44:30;4.93;;;4.43;;
49578;SDS011;35483;50.828;3.228;2023-06-10T14:46:56;4.60;;;4.22;;
49578;SDS011;35483;50.828;3.228;2023-06-10T14:49:22;4.07;;;3.78;;
49578;SDS011;35483;50.828;3.228;2023-06-10T14:51:47;4.60;;;4.30;;
49578;SDS011;35483;50.828;3.228;2023-06-10T14:54:15;5.00;;;4.50;;
49578;SDS011;35483;50.828;3.228;2023-06-10T14:56:41;4.95;;;4.55;;
49578;SDS011;35483;50.828;3.228;2023-06-10T14:59:06;5.00;;;4.60;;
49578;SDS011;35483;50.828;3.228;2023-06-10T15:01:32;5.07;;;4.57;;
49578;SDS011;35483;50.828;3.228;2023-06-10T15:03:59;6.57;;;4.20;;
49578;SDS011;35483;50.828;3.228;2023-06-10T15:06:25;4.72;;;4.30;;
49578;SDS011;35483;50.828;3.228;2023-06-10T15:08:51;5.80;;;4.68;;
49578;SDS011;35483;50.828;3.228;2023-06-10T15:11:16;4.38;;;4.07;;
49578;SDS011;35483;50.828;3.228;2023-06-10T15:13:42;4.50;;;4.20;;
49578;SDS011;35483;50.828;3.228;2023-06-10T15:16:08;4.45;;;4.10;;
49578;SDS011;35483;50.828;3.228;2023-06-10T15:18:34;4.72;;;4.32;;
49578;SDS011;35483;50.828;3.228;2023-06-10T15:21:00;4.78;;;4.43;;
49578;SDS011;35483;50.828;3.228;2023-06-10T15:23:25;5.20;;;4.70;;
49578;SDS011;35483;50.828;3.228;2023-06-10T15:25:51;5.30;;;4.60;;
49578;SDS011;35483;50.828;3.228;2023-06-10T15:28:17;5.93;;;5.10;;